< < Back
Terminal Aerodrome Forecast


Current Version              Previous Versions:   1  2  3  4  5  6  7  8  9  

Terminal Aerodrome Forecast

543
FTUS44 KMRX 081726
TAFTYS
TAF
KTYS 081726Z 0818/0918 24015G22KT P6SM -SHRA OVC035
     FM082200 25011KT P6SM -SHSN OVC025=

Latest METAR

033
SAUS80 KWBC 090100 RRB
MTRTYS
METAR KTYS 090053Z 24008KT 10SM FEW050 OVC090 04/M05 A2976 RMK AO2
SLP080 T00391050


USA.gov is the U.S. government's official web portal to all federal, state and local government web resources and services.